sensor_id;sensor_type;location;lat;lon;timestamp;pressure;altitude;pressure_sealevel;temperature;humidity
74336;BME280;62755;-33.398;-70.572;2024-01-10T00:02:05;93041.59;;;24.75;34.66
74336;BME280;62755;-33.398;-70.572;2024-01-10T00:04:34;93073.94;;;24.98;34.84
74336;BME280;62755;-33.398;-70.572;2024-01-10T00:07:05;93083.63;;;25.16;34.60
74336;BME280;62755;-33.398;-70.572;2024-01-10T00:09:36;93085.88;;;25.17;35.10
74336;BME280;62755;-33.398;-70.572;2024-01-10T00:12:06;93081.16;;;25.07;34.87
74336;BME280;62755;-33.398;-70.572;2024-01-10T00:14:35;93074.69;;;25.10;35.13
74336;BME280;62755;-33.398;-70.572;2024-01-10T00:17:05;93077.19;;;24.97;35.84
74336;BME280;62755;-33.398;-70.572;2024-01-10T00:19:34;93076.47;;;24.91;36.10
74336;BME280;62755;-33.398;-70.572;2024-01-10T00:22:04;93073.22;;;24.92;35.78
74336;BME280;62755;-33.398;-70.572;2024-01-10T00:24:35;93083.44;;;24.92;36.10
74336;BME280;62755;-33.398;-70.572;2024-01-10T00:27:04;93091.19;;;24.88;36.29
74336;BME280;62755;-33.398;-70.572;2024-01-10T00:29:34;93083.47;;;24.86;36.50
74336;BME280;62755;-33.398;-70.572;2024-01-10T00:32:03;93090.47;;;24.82;36.48
74336;BME280;62755;-33.398;-70.572;2024-01-10T00:34:33;93091.19;;;24.66;37.28
74336;BME280;62755;-33.398;-70.572;2024-01-10T00:37:03;93096.69;;;24.77;37.00
74336;BME280;62755;-33.398;-70.572;2024-01-10T00:39:32;93098.19;;;24.67;37.24
74336;BME280;62755;-33.398;-70.572;2024-01-10T00:42:03;93100.19;;;24.61;37.51
74336;BME280;62755;-33.398;-70.572;2024-01-10T00:44:33;93080.25;;;24.55;37.29
74336;BME280;62755;-33.398;-70.572;2024-01-10T00:47:03;93100.16;;;24.72;36.93
74336;BME280;62755;-33.398;-70.572;2024-01-10T00:49:33;93095.19;;;24.65;36.97
74336;BME280;62755;-33.398;-70.572;2024-01-10T00:52:03;93108.16;;;24.48;37.71
74336;BME280;62755;-33.398;-70.572;2024-01-10T00:54:32;93096.69;;;24.32;38.34
74336;BME280;62755;-33.398;-70.572;2024-01-10T00:57:04;93105.59;;;23.94;39.19
74336;BME280;62755;-33.398;-70.572;2024-01-10T00:59:33;93102.66;;;24.25;38.58
74336;BME280;62755;-33.398;-70.572;2024-01-10T01:02:03;93111.13;;;24.05;38.68
74336;BME280;62755;-33.398;-70.572;2024-01-10T01:04:33;93112.88;;;24.08;38.96
74336;BME280;62755;-33.398;-70.572;2024-01-10T01:07:02;93114.63;;;24.11;39.16
74336;BME280;62755;-33.398;-70.572;2024-01-10T01:09:34;93121.84;;;24.20;39.08
74336;BME280;62755;-33.398;-70.572;2024-01-10T01:12:06;93112.16;;;24.47;38.45
74336;BME280;62755;-33.398;-70.572;2024-01-10T01:14:36;93116.13;;;24.34;38.61
74336;BME280;62755;-33.398;-70.572;2024-01-10T01:17:05;93118.63;;;24.43;38.50
74336;BME280;62755;-33.398;-70.572;2024-01-10T01:19:34;93119.13;;;24.36;38.33
74336;BME280;62755;-33.398;-70.572;2024-01-10T01:22:04;93117.63;;;24.58;38.27
74336;BME280;62755;-33.398;-70.572;2024-01-10T01:24:33;93120.13;;;24.56;38.70
74336;BME280;62755;-33.398;-70.572;2024-01-10T01:27:05;93112.91;;;24.53;38.39
74336;BME280;62755;-33.398;-70.572;2024-01-10T01:29:34;93113.66;;;24.59;38.25
74336;BME280;62755;-33.398;-70.572;2024-01-10T01:32:04;93111.91;;;24.50;38.52
74336;BME280;62755;-33.398;-70.572;2024-01-10T01:34:33;93109.66;;;24.49;38.36
74336;BME280;62755;-33.398;-70.572;2024-01-10T01:37:03;93106.66;;;24.30;38.95
74336;BME280;62755;-33.398;-70.572;2024-01-10T01:39:32;93112.16;;;24.47;38.61
74336;BME280;62755;-33.398;-70.572;2024-01-10T01:42:02;93111.41;;;24.52;38.57
74336;BME280;62755;-33.398;-70.572;2024-01-10T01:44:33;93111.41;;;24.46;38.99
74336;BME280;62755;-33.398;-70.572;2024-01-10T01:47:02;93113.63;;;24.48;38.54
74336;BME280;62755;-33.398;-70.572;2024-01-10T01:49:32;93105.69;;;24.38;38.85
74336;BME280;62755;-33.398;-70.572;2024-01-10T01:52:02;93101.69;;;24.28;38.88
74336;BME280;62755;-33.398;-70.572;2024-01-10T01:54:32;93096.69;;;24.32;38.42
74336;BME280;62755;-33.398;-70.572;2024-01-10T01:57:02;93096.19;;;24.28;38.58
74336;BME280;62755;-33.398;-70.572;2024-01-10T01:59:33;93092.72;;;24.45;38.44
74336;BME280;62755;-33.398;-70.572;2024-01-10T02:02:03;93100.94;;;24.33;39.00
74336;BME280;62755;-33.398;-70.572;2024-01-10T02:04:33;93101.44;;;24.37;38.98
74336;BME280;62755;-33.398;-70.572;2024-01-10T02:07:03;93096.47;;;24.19;39.25
74336;BME280;62755;-33.398;-70.572;2024-01-10T02:09:33;93096.69;;;24.16;39.21
74336;BME280;62755;-33.398;-70.572;2024-01-10T02:12:02;93090.22;;;24.13;39.37
74336;BME280;62755;-33.398;-70.572;2024-01-10T02:14:34;93098.69;;;24.26;39.47
74336;BME280;62755;-33.398;-70.572;2024-01-10T02:17:03;93099.19;;;24.19;39.35
74336;BME280;62755;-33.398;-70.572;2024-01-10T02:19:33;93090.72;;;24.17;39.08
74336;BME280;62755;-33.398;-70.572;2024-01-10T02:22:03;93089.72;;;24.42;39.22
74336;BME280;62755;-33.398;-70.572;2024-01-10T02:24:33;93080.25;;;24.32;38.79
74336;BME280;62755;-33.398;-70.572;2024-01-10T02:27:04;93077.78;;;24.23;39.10
74336;BME280;62755;-33.398;-70.572;2024-01-10T02:29:35;93074.78;;;24.21;38.79
74336;BME280;62755;-33.398;-70.572;2024-01-10T02:32:04;93084.75;;;24.13;39.20
74336;BME280;62755;-33.398;-70.572;2024-01-10T02:34:34;93072.03;;;24.10;39.18
74336;BME280;62755;-33.398;-70.572;2024-01-10T02:37:03;93080.69;;;23.81;39.86
74336;BME280;62755;-33.398;-70.572;2024-01-10T02:39:33;93083.19;;;23.90;39.64
74336;BME280;62755;-33.398;-70.572;2024-01-10T02:42:04;93080.44;;;23.85;39.26
74336;BME280;62755;-33.398;-70.572;2024-01-10T02:44:34;93073.94;;;23.77;39.55
74336;BME280;62755;-33.398;-70.572;2024-01-10T02:47:04;93075.72;;;23.74;39.52
74336;BME280;62755;-33.398;-70.572;2024-01-10T02:49:33;93074.69;;;23.77;39.85
74336;BME280;62755;-33.398;-70.572;2024-01-10T02:52:03;93067.50;;;23.85;39.79
74336;BME280;62755;-33.398;-70.572;2024-01-10T02:54:32;93063.75;;;23.77;39.42
74336;BME280;62755;-33.398;-70.572;2024-01-10T02:57:03;93070.75;;;23.84;39.35
74336;BME280;62755;-33.398;-70.572;2024-01-10T02:59:33;93068.97;;;23.86;39.35
74336;BME280;62755;-33.398;-70.572;2024-01-10T03:02:02;93060.97;;;23.61;39.91
74336;BME280;62755;-33.398;-70.572;2024-01-10T03:04:31;93059.50;;;23.65;39.87
74336;BME280;62755;-33.398;-70.572;2024-01-10T03:07:01;93063.69;;;23.55;39.58
74336;BME280;62755;-33.398;-70.572;2024-01-10T03:09:30;93052.28;;;23.62;39.70
74336;BME280;62755;-33.398;-70.572;2024-01-10T03:11:59;93057.19;;;23.47;39.58
74336;BME280;62755;-33.398;-70.572;2024-01-10T03:14:32;93064.69;;;23.52;39.41
74336;BME280;62755;-33.398;-70.572;2024-01-10T03:17:01;93062.94;;;23.49;39.83
74336;BME280;62755;-33.398;-70.572;2024-01-10T03:19:31;93055.47;;;23.55;39.48
74336;BME280;62755;-33.398;-70.572;2024-01-10T03:22:00;93049.03;;;23.75;39.13
74336;BME280;62755;-33.398;-70.572;2024-01-10T03:24:29;93053.84;;;24.18;40.19
74336;BME280;62755;-33.398;-70.572;2024-01-10T03:26:59;93053.81;;;23.96;40.12
74336;BME280;62755;-33.398;-70.572;2024-01-10T03:29:31;93050.31;;;23.79;39.47
74336;BME280;62755;-33.398;-70.572;2024-01-10T03:32:01;93047.59;;;23.96;39.54
74336;BME280;62755;-33.398;-70.572;2024-01-10T03:34:30;93042.13;;;24.01;39.39
74336;BME280;62755;-33.398;-70.572;2024-01-10T03:36:59;93037.38;;;23.96;39.33
74336;BME280;62755;-33.398;-70.572;2024-01-10T03:39:29;93042.91;;;24.07;39.17
74336;BME280;62755;-33.398;-70.572;2024-01-10T03:41:59;93048.63;;;24.09;39.67
74336;BME280;62755;-33.398;-70.572;2024-01-10T03:44:30;93052.38;;;24.17;39.58
74336;BME280;62755;-33.398;-70.572;2024-01-10T03:46:59;93048.38;;;24.18;39.31
74336;BME280;62755;-33.398;-70.572;2024-01-10T03:49:29;93052.34;;;24.06;39.92
74336;BME280;62755;-33.398;-70.572;2024-01-10T03:51:58;93045.38;;;24.16;39.32
74336;BME280;62755;-33.398;-70.572;2024-01-10T03:54:27;93039.91;;;24.16;39.75
74336;BME280;62755;-33.398;-70.572;2024-01-10T03:56:57;93039.84;;;23.94;39.09
74336;BME280;62755;-33.398;-70.572;2024-01-10T03:59:26;93042.09;;;23.85;39.02
74336;BME280;62755;-33.398;-70.572;2024-01-10T04:01:57;93039.38;;;24.01;38.88
74336;BME280;62755;-33.398;-70.572;2024-01-10T04:04:27;93030.88;;;23.88;39.48
74336;BME280;62755;-33.398;-70.572;2024-01-10T04:06:56;93027.38;;;23.71;39.91
74336;BME280;62755;-33.398;-70.572;2024-01-10T04:09:26;93027.38;;;23.71;39.60
74336;BME280;62755;-33.398;-70.572;2024-01-10T04:11:55;93028.91;;;23.72;38.98
74336;BME280;62755;-33.398;-70.572;2024-01-10T04:14:24;93028.16;;;23.77;39.02
74336;BME280;62755;-33.398;-70.572;2024-01-10T04:16:56;93034.38;;;23.72;38.98
74336;BME280;62755;-33.398;-70.572;2024-01-10T04:19:25;93026.38;;;23.63;39.12
74336;BME280;62755;-33.398;-70.572;2024-01-10T04:21:55;93025.38;;;23.55;40.00
74336;BME280;62755;-33.398;-70.572;2024-01-10T04:24:24;93023.88;;;23.54;39.38
74336;BME280;62755;-33.398;-70.572;2024-01-10T04:26:53;93024.41;;;23.69;38.94
74336;BME280;62755;-33.398;-70.572;2024-01-10T04:29:23;93016.94;;;23.86;39.41
74336;BME280;62755;-33.398;-70.572;2024-01-10T04:31:52;93018.44;;;23.87;39.69
74336;BME280;62755;-33.398;-70.572;2024-01-10T04:34:23;93011.97;;;23.79;39.66
74336;BME280;62755;-33.398;-70.572;2024-01-10T04:36:53;93018.69;;;24.00;39.48
74336;BME280;62755;-33.398;-70.572;2024-01-10T04:39:22;93011.47;;;23.86;38.79
74336;BME280;62755;-33.398;-70.572;2024-01-10T04:41:51;93009.97;;;23.85;39.21
74336;BME280;62755;-33.398;-70.572;2024-01-10T04:44:21;93008.00;;;23.91;39.07
74336;BME280;62755;-33.398;-70.572;2024-01-10T04:46:51;93000.53;;;24.08;38.92
74336;BME280;62755;-33.398;-70.572;2024-01-10T04:49:22;92996.78;;;24.06;38.79
74336;BME280;62755;-33.398;-70.572;2024-01-10T04:51:51;92987.53;;;23.59;39.65
74336;BME280;62755;-33.398;-70.572;2024-01-10T04:54:21;92984.56;;;23.46;39.80
74336;BME280;62755;-33.398;-70.572;2024-01-10T04:56:50;92985.56;;;23.54;39.97
74336;BME280;62755;-33.398;-70.572;2024-01-10T04:59:19;92972.63;;;23.82;39.48
74336;BME280;62755;-33.398;-70.572;2024-01-10T05:01:49;92963.94;;;23.84;39.05
74336;BME280;62755;-33.398;-70.572;2024-01-10T05:04:18;92965.91;;;23.89;38.88
74336;BME280;62755;-33.398;-70.572;2024-01-10T05:06:49;92965.16;;;23.88;38.74
74336;BME280;62755;-33.398;-70.572;2024-01-10T05:09:19;92969.88;;;23.66;39.25
74336;BME280;62755;-33.398;-70.572;2024-01-10T05:11:48;92972.84;;;23.51;40.00
74336;BME280;62755;-33.398;-70.572;2024-01-10T05:14:18;92971.59;;;23.41;39.86
74336;BME280;62755;-33.398;-70.572;2024-01-10T05:16:48;92955.66;;;23.34;40.01
74336;BME280;62755;-33.398;-70.572;2024-01-10T05:19:17;92964.88;;;23.31;40.45
74336;BME280;62755;-33.398;-70.572;2024-01-10T05:21:48;92969.31;;;23.23;40.39
74336;BME280;62755;-33.398;-70.572;2024-01-10T05:24:18;92949.41;;;23.17;40.89
74336;BME280;62755;-33.398;-70.572;2024-01-10T05:26:47;92960.34;;;23.17;40.44
74336;BME280;62755;-33.398;-70.572;2024-01-10T05:29:18;92955.59;;;23.12;40.40
74336;BME280;62755;-33.398;-70.572;2024-01-10T05:31:49;92946.63;;;23.06;40.92
74336;BME280;62755;-33.398;-70.572;2024-01-10T05:34:18;92949.59;;;23.08;40.89
74336;BME280;62755;-33.398;-70.572;2024-01-10T05:36:49;92940.94;;;23.20;41.06
74336;BME280;62755;-33.398;-70.572;2024-01-10T05:39:19;92942.19;;;23.25;41.21
74336;BME280;62755;-33.398;-70.572;2024-01-10T05:41:48;92938.22;;;23.26;40.78
74336;BME280;62755;-33.398;-70.572;2024-01-10T05:44:18;92946.97;;;23.41;40.56
74336;BME280;62755;-33.398;-70.572;2024-01-10T05:46:47;92942.25;;;23.47;40.66
74336;BME280;62755;-33.398;-70.572;2024-01-10T05:49:16;92935.50;;;23.31;40.73
74336;BME280;62755;-33.398;-70.572;2024-01-10T05:51:46;92944.22;;;23.41;40.41
74336;BME280;62755;-33.398;-70.572;2024-01-10T05:54:18;92938.47;;;23.28;40.86
74336;BME280;62755;-33.398;-70.572;2024-01-10T05:56:47;92934.28;;;23.38;40.38
74336;BME280;62755;-33.398;-70.572;2024-01-10T05:59:17;92936.97;;;23.27;41.04
74336;BME280;62755;-33.398;-70.572;2024-01-10T06:01:46;92932.72;;;23.15;41.21
74336;BME280;62755;-33.398;-70.572;2024-01-10T06:04:15;92939.50;;;22.60;41.34
74336;BME280;62755;-33.398;-70.572;2024-01-10T06:06:45;92942.03;;;22.69;41.95
74336;BME280;62755;-33.398;-70.572;2024-01-10T06:09:14;92944.28;;;22.71;41.36
74336;BME280;62755;-33.398;-70.572;2024-01-10T06:11:50;92942.84;;;22.92;40.77
74336;BME280;62755;-33.398;-70.572;2024-01-10T06:14:19;92930.94;;;22.95;41.16
74336;BME280;62755;-33.398;-70.572;2024-01-10T06:16:49;92929.19;;;22.98;40.86
74336;BME280;62755;-33.398;-70.572;2024-01-10T06:19:18;92927.63;;;22.75;41.16
74336;BME280;62755;-33.398;-70.572;2024-01-10T06:21:48;92924.66;;;22.73;41.47
74336;BME280;62755;-33.398;-70.572;2024-01-10T06:24:19;92934.63;;;22.76;41.62
74336;BME280;62755;-33.398;-70.572;2024-01-10T06:26:50;92928.63;;;22.72;41.59
74336;BME280;62755;-33.398;-70.572;2024-01-10T06:29:19;92930.03;;;22.50;41.63
74336;BME280;62755;-33.398;-70.572;2024-01-10T06:31:48;92923.72;;;22.33;41.78
74336;BME280;62755;-33.398;-70.572;2024-01-10T06:34:18;92900.03;;;22.19;41.96
74336;BME280;62755;-33.398;-70.572;2024-01-10T06:36:47;92922.66;;;22.20;43.20
74336;BME280;62755;-33.398;-70.572;2024-01-10T06:39:17;92913.66;;;22.14;43.55
74336;BME280;62755;-33.398;-70.572;2024-01-10T06:41:49;92908.31;;;21.88;44.62
74336;BME280;62755;-33.398;-70.572;2024-01-10T06:44:19;92912.00;;;22.27;44.01
74336;BME280;62755;-33.398;-70.572;2024-01-10T06:46:49;92908.56;;;22.32;43.80
74336;BME280;62755;-33.398;-70.572;2024-01-10T06:49:19;92906.59;;;22.38;43.26
74336;BME280;62755;-33.398;-70.572;2024-01-10T06:51:48;92910.97;;;22.19;43.44
74336;BME280;62755;-33.398;-70.572;2024-01-10T06:54:18;92904.25;;;22.15;43.33
74336;BME280;62755;-33.398;-70.572;2024-01-10T06:56:50;92898.91;;;21.89;43.54
74336;BME280;62755;-33.398;-70.572;2024-01-10T06:59:20;92893.81;;;21.76;43.98
74336;BME280;62755;-33.398;-70.572;2024-01-10T07:01:52;92896.19;;;21.58;44.16
74336;BME280;62755;-33.398;-70.572;2024-01-10T07:04:23;92898.66;;;21.56;43.98
74336;BME280;62755;-33.398;-70.572;2024-01-10T07:06:53;92895.25;;;21.72;44.03
74336;BME280;62755;-33.398;-70.572;2024-01-10T07:09:23;92904.31;;;21.52;44.17
74336;BME280;62755;-33.398;-70.572;2024-01-10T07:11:54;92896.78;;;21.73;43.78
74336;BME280;62755;-33.398;-70.572;2024-01-10T07:14:24;92902.06;;;21.51;43.38
74336;BME280;62755;-33.398;-70.572;2024-01-10T07:16:53;92899.59;;;21.22;44.16
74336;BME280;62755;-33.398;-70.572;2024-01-10T07:19:23;92895.03;;;21.39;44.34
74336;BME280;62755;-33.398;-70.572;2024-01-10T07:21:53;92896.00;;;21.36;44.36
74336;BME280;62755;-33.398;-70.572;2024-01-10T07:24:22;92894.94;;;21.59;44.21
74336;BME280;62755;-33.398;-70.572;2024-01-10T07:26:53;92890.25;;;21.65;44.08
74336;BME280;62755;-33.398;-70.572;2024-01-10T07:29:24;92882.94;;;21.82;43.44
74336;BME280;62755;-33.398;-70.572;2024-01-10T07:31:53;92897.28;;;21.77;43.67
74336;BME280;62755;-33.398;-70.572;2024-01-10T07:34:22;92892.69;;;21.89;43.15
74336;BME280;62755;-33.398;-70.572;2024-01-10T07:36:52;92892.78;;;22.05;43.20
74336;BME280;62755;-33.398;-70.572;2024-01-10T07:39:22;92898.56;;;22.18;43.13
74336;BME280;62755;-33.398;-70.572;2024-01-10T07:41:53;92902.50;;;21.75;43.82
74336;BME280;62755;-33.398;-70.572;2024-01-10T07:44:21;92903.56;;;21.83;43.73
74336;BME280;62755;-33.398;-70.572;2024-01-10T07:46:51;92910.78;;;21.55;43.55
74336;BME280;62755;-33.398;-70.572;2024-01-10T07:49:22;92902.06;;;21.51;44.13
74336;BME280;62755;-33.398;-70.572;2024-01-10T07:51:51;92920.06;;;21.37;44.50
74336;BME280;62755;-33.398;-70.572;2024-01-10T07:54:21;92910.22;;;20.94;45.61
74336;BME280;62755;-33.398;-70.572;2024-01-10T07:56:50;92927.19;;;20.83;46.30
74336;BME280;62755;-33.398;-70.572;2024-01-10T07:59:22;92915.72;;;20.99;45.87
74336;BME280;62755;-33.398;-70.572;2024-01-10T08:01:56;92905.00;;;21.16;45.90
74336;BME280;62755;-33.398;-70.572;2024-01-10T08:04:26;92909.81;;;21.58;44.86
74336;BME280;62755;-33.398;-70.572;2024-01-10T08:06:55;92896.00;;;21.36;45.29
74336;BME280;62755;-33.398;-70.572;2024-01-10T08:09:26;92903.22;;;21.39;45.09
74336;BME280;62755;-33.398;-70.572;2024-01-10T08:11:56;92907.56;;;21.56;44.50
74336;BME280;62755;-33.398;-70.572;2024-01-10T08:14:27;92910.50;;;21.53;43.95
74336;BME280;62755;-33.398;-70.572;2024-01-10T08:16:56;92908.56;;;21.28;44.66
74336;BME280;62755;-33.398;-70.572;2024-01-10T08:19:27;92916.31;;;21.35;44.70
74336;BME280;62755;-33.398;-70.572;2024-01-10T08:21:56;92917.09;;;21.10;44.79
74336;BME280;62755;-33.398;-70.572;2024-01-10T08:24:26;92917.97;;;20.75;45.31
74336;BME280;62755;-33.398;-70.572;2024-01-10T08:26:55;92911.22;;;21.17;44.84
74336;BME280;62755;-33.398;-70.572;2024-01-10T08:29:26;92922.53;;;21.35;44.25
74336;BME280;62755;-33.398;-70.572;2024-01-10T08:31:58;92916.75;;;21.59;43.87
74336;BME280;62755;-33.398;-70.572;2024-01-10T08:34:27;92920.13;;;21.17;44.29
74336;BME280;62755;-33.398;-70.572;2024-01-10T08:36:57;92923.88;;;21.20;44.49
74336;BME280;62755;-33.398;-70.572;2024-01-10T08:39:26;92928.00;;;21.10;44.48
74336;BME280;62755;-33.398;-70.572;2024-01-10T08:41:57;92919.97;;;21.26;44.05
74336;BME280;62755;-33.398;-70.572;2024-01-10T08:44:28;92934.59;;;21.29;44.51
74336;BME280;62755;-33.398;-70.572;2024-01-10T08:46:58;92937.44;;;21.40;44.12
74336;BME280;62755;-33.398;-70.572;2024-01-10T08:49:27;92945.53;;;21.29;43.94
74336;BME280;62755;-33.398;-70.572;2024-01-10T08:51:57;92939.72;;;21.47;43.88
74336;BME280;62755;-33.398;-70.572;2024-01-10T08:54:26;92942.19;;;21.45;44.06
74336;BME280;62755;-33.398;-70.572;2024-01-10T08:56:56;92943.59;;;21.35;44.15
74336;BME280;62755;-33.398;-70.572;2024-01-10T08:59:28;92943.06;;;21.31;44.16
74336;BME280;62755;-33.398;-70.572;2024-01-10T09:01:57;92939.66;;;21.36;44.13
74336;BME280;62755;-33.398;-70.572;2024-01-10T09:04:27;92946.59;;;21.37;43.99
74336;BME280;62755;-33.398;-70.572;2024-01-10T09:06:57;92957.34;;;21.20;44.23
74336;BME280;62755;-33.398;-70.572;2024-01-10T09:09:26;92944.31;;;21.04;44.41
74336;BME280;62755;-33.398;-70.572;2024-01-10T09:11:56;92962.22;;;21.11;44.39
74336;BME280;62755;-33.398;-70.572;2024-01-10T09:14:27;92969.53;;;21.25;44.00
74336;BME280;62755;-33.398;-70.572;2024-01-10T09:16:56;92966.94;;;21.36;43.95
74336;BME280;62755;-33.398;-70.572;2024-01-10T09:19:29;92975.53;;;21.29;43.85
74336;BME280;62755;-33.398;-70.572;2024-01-10T09:21:59;92959.69;;;21.33;43.69
74336;BME280;62755;-33.398;-70.572;2024-01-10T09:24:28;92955.56;;;21.43;43.44
74336;BME280;62755;-33.398;-70.572;2024-01-10T09:26:58;92959.00;;;21.38;43.52
74336;BME280;62755;-33.398;-70.572;2024-01-10T09:29:29;92966.81;;;21.25;43.79
74336;BME280;62755;-33.398;-70.572;2024-01-10T09:31:58;92970.34;;;21.31;43.78
74336;BME280;62755;-33.398;-70.572;2024-01-10T09:34:27;92964.88;;;21.31;43.79
74336;BME280;62755;-33.398;-70.572;2024-01-10T09:36:57;92964.47;;;21.12;44.44
74336;BME280;62755;-33.398;-70.572;2024-01-10T09:39:26;92963.97;;;20.93;44.61
74336;BME280;62755;-33.398;-70.572;2024-01-10T09:41:56;92966.31;;;21.00;44.60
74336;BME280;62755;-33.398;-70.572;2024-01-10T09:44:30;92965.03;;;20.76;45.08
74336;BME280;62755;-33.398;-70.572;2024-01-10T09:47:01;92966.31;;;20.80;45.20
74336;BME280;62755;-33.398;-70.572;2024-01-10T09:49:30;92966.59;;;21.03;44.82
74336;BME280;62755;-33.398;-70.572;2024-01-10T09:52:03;92967.34;;;21.03;44.63
74336;BME280;62755;-33.398;-70.572;2024-01-10T09:54:34;92963.50;;;21.15;44.46
74336;BME280;62755;-33.398;-70.572;2024-01-10T09:57:07;92969.47;;;21.19;44.44
74336;BME280;62755;-33.398;-70.572;2024-01-10T09:59:38;92965.38;;;20.43;46.00
74336;BME280;62755;-33.398;-70.572;2024-01-10T10:02:08;92963.41;;;20.64;45.54
74336;BME280;62755;-33.398;-70.572;2024-01-10T10:04:41;92962.94;;;20.65;45.26
74336;BME280;62755;-33.398;-70.572;2024-01-10T10:07:13;92967.16;;;20.66;45.23
74336;BME280;62755;-33.398;-70.572;2024-01-10T10:09:43;92969.06;;;20.80;45.13
74336;BME280;62755;-33.398;-70.572;2024-01-10T10:12:12;92981.72;;;21.04;44.79
74336;BME280;62755;-33.398;-70.572;2024-01-10T10:14:43;92986.59;;;21.20;44.52
74336;BME280;62755;-33.398;-70.572;2024-01-10T10:17:16;92983.88;;;20.99;44.78
74336;BME280;62755;-33.398;-70.572;2024-01-10T10:19:45;92984.59;;;21.15;44.83
74336;BME280;62755;-33.398;-70.572;2024-01-10T10:22:15;92989.59;;;21.22;44.97
74336;BME280;62755;-33.398;-70.572;2024-01-10T10:24:48;92994.34;;;21.27;44.83
74336;BME280;62755;-33.398;-70.572;2024-01-10T10:27:19;93000.06;;;21.29;44.78
74336;BME280;62755;-33.398;-70.572;2024-01-10T10:29:50;92998.56;;;21.02;44.92
74336;BME280;62755;-33.398;-70.572;2024-01-10T10:32:19;93007.75;;;20.64;46.23
74336;BME280;62755;-33.398;-70.572;2024-01-10T10:34:49;93007.91;;;20.06;48.03
74336;BME280;62755;-33.398;-70.572;2024-01-10T10:37:18;93008.38;;;20.19;47.56
74336;BME280;62755;-33.398;-70.572;2024-01-10T10:39:48;92993.75;;;20.37;47.07
74336;BME280;62755;-33.398;-70.572;2024-01-10T10:42:18;92998.56;;;20.82;46.39
74336;BME280;62755;-33.398;-70.572;2024-01-10T10:44:51;92993.56;;;21.00;45.56
74336;BME280;62755;-33.398;-70.572;2024-01-10T10:47:23;92993.88;;;21.03;45.18
74336;BME280;62755;-33.398;-70.572;2024-01-10T10:49:58;92993.38;;;20.64;45.63
74336;BME280;62755;-33.398;-70.572;2024-01-10T10:52:29;92997.28;;;20.77;45.60
74336;BME280;62755;-33.398;-70.572;2024-01-10T10:54:59;93001.34;;;20.67;45.30
74336;BME280;62755;-33.398;-70.572;2024-01-10T10:57:29;93005.41;;;20.37;45.74
74336;BME280;62755;-33.398;-70.572;2024-01-10T11:00:01;93009.72;;;20.64;45.70
74336;BME280;62755;-33.398;-70.572;2024-01-10T11:02:35;92998.97;;;20.55;46.07
74336;BME280;62755;-33.398;-70.572;2024-01-10T11:05:06;92997.94;;;21.13;44.96
74336;BME280;62755;-33.398;-70.572;2024-01-10T11:07:37;93005.94;;;21.42;44.19
74336;BME280;62755;-33.398;-70.572;2024-01-10T11:10:10;92993.78;;;21.43;43.33
74336;BME280;62755;-33.398;-70.572;2024-01-10T11:12:58;93009.81;;;21.35;43.94
74336;BME280;62755;-33.398;-70.572;2024-01-10T11:19:04;93019.06;;;21.18;44.01
74336;BME280;62755;-33.398;-70.572;2024-01-10T11:21:53;93003.78;;;21.26;44.22
74336;BME280;62755;-33.398;-70.572;2024-01-10T11:24:25;93025.03;;;21.42;44.05
74336;BME280;62755;-33.398;-70.572;2024-01-10T11:27:07;93032.38;;;21.10;45.00
74336;BME280;62755;-33.398;-70.572;2024-01-10T11:29:39;93019.06;;;20.97;45.44
74336;BME280;62755;-33.398;-70.572;2024-01-10T11:32:14;93042.09;;;20.96;45.49
74336;BME280;62755;-33.398;-70.572;2024-01-10T11:34:55;93013.22;;;21.05;45.65
74336;BME280;62755;-33.398;-70.572;2024-01-10T11:37:31;93047.16;;;21.24;45.40
74336;BME280;62755;-33.398;-70.572;2024-01-10T11:40:08;93049.81;;;21.18;46.20
74336;BME280;62755;-33.398;-70.572;2024-01-10T11:42:44;93045.22;;;21.30;45.47
74336;BME280;62755;-33.398;-70.572;2024-01-10T11:45:36;93039.88;;;21.41;45.14
74336;BME280;62755;-33.398;-70.572;2024-01-10T11:48:08;93045.66;;;21.48;44.98
74336;BME280;62755;-33.398;-70.572;2024-01-10T11:50:39;93046.53;;;21.60;44.74
74336;BME280;62755;-33.398;-70.572;2024-01-10T11:53:09;93049.78;;;21.38;45.97
74336;BME280;62755;-33.398;-70.572;2024-01-10T11:55:49;93051.03;;;21.63;45.56
74336;BME280;62755;-33.398;-70.572;2024-01-10T11:58:19;93054.47;;;21.58;45.15
74336;BME280;62755;-33.398;-70.572;2024-01-10T12:00:49;93048.78;;;21.61;45.12
74336;BME280;62755;-33.398;-70.572;2024-01-10T12:03:19;93050.66;;;21.50;45.24
74336;BME280;62755;-33.398;-70.572;2024-01-10T12:05:52;93058.78;;;21.70;45.00
74336;BME280;62755;-33.398;-70.572;2024-01-10T12:08:22;93062.16;;;21.59;45.26
74336;BME280;62755;-33.398;-70.572;2024-01-10T12:10:52;93055.00;;;21.62;44.93
74336;BME280;62755;-33.398;-70.572;2024-01-10T12:13:21;93055.09;;;21.73;44.55
74336;BME280;62755;-33.398;-70.572;2024-01-10T12:15:50;93059.03;;;21.72;44.67
74336;BME280;62755;-33.398;-70.572;2024-01-10T12:18:20;93056.25;;;21.66;44.57
74336;BME280;62755;-33.398;-70.572;2024-01-10T12:20:51;93061.91;;;21.83;44.35
74336;BME280;62755;-33.398;-70.572;2024-01-10T12:23:20;93060.00;;;21.69;44.56
74336;BME280;62755;-33.398;-70.572;2024-01-10T12:25:50;93066.09;;;21.58;44.41
74336;BME280;62755;-33.398;-70.572;2024-01-10T12:28:19;93067.94;;;21.67;44.66
74336;BME280;62755;-33.398;-70.572;2024-01-10T12:30:48;93063.31;;;21.78;44.51
74336;BME280;62755;-33.398;-70.572;2024-01-10T12:33:18;93064.09;;;21.79;43.98
74336;BME280;62755;-33.398;-70.572;2024-01-10T12:36:07;93072.56;;;21.81;44.33
74336;BME280;62755;-33.398;-70.572;2024-01-10T12:38:36;93073.50;;;21.78;44.32
74336;BME280;62755;-33.398;-70.572;2024-01-10T12:41:06;93062.19;;;21.85;44.48
74336;BME280;62755;-33.398;-70.572;2024-01-10T12:43:36;93070.91;;;21.89;44.14
74336;BME280;62755;-33.398;-70.572;2024-01-10T12:46:07;93068.25;;;22.00;43.75
74336;BME280;62755;-33.398;-70.572;2024-01-10T12:48:38;93071.78;;;22.06;43.49
74336;BME280;62755;-33.398;-70.572;2024-01-10T12:51:10;93077.16;;;21.95;44.01